sensor_id;sensor_type;location;lat;lon;timestamp;temperature;humidity
41220;DHT22;26951;47.338;9.196;2023-02-11T00:00:31;-4.40;58.60
41220;DHT22;26951;47.338;9.196;2023-02-11T00:03:16;-4.30;59.60
41220;DHT22;26951;47.338;9.196;2023-02-11T00:06:02;-4.20;60.00
41220;DHT22;26951;47.338;9.196;2023-02-11T00:08:46;-4.20;59.10
41220;DHT22;26951;47.338;9.196;2023-02-11T00:11:30;-4.10;58.20
41220;DHT22;26951;47.338;9.196;2023-02-11T00:14:15;-4.10;56.80
41220;DHT22;26951;47.338;9.196;2023-02-11T00:16:59;-4.10;55.60
41220;DHT22;26951;47.338;9.196;2023-02-11T00:19:43;-4.20;55.40
41220;DHT22;26951;47.338;9.196;2023-02-11T00:22:27;-4.20;55.20
41220;DHT22;26951;47.338;9.196;2023-02-11T00:25:11;-4.20;55.40
41220;DHT22;26951;47.338;9.196;2023-02-11T00:27:55;-4.20;55.50
41220;DHT22;26951;47.338;9.196;2023-02-11T00:30:39;-4.30;54.90
41220;DHT22;26951;47.338;9.196;2023-02-11T00:33:24;-4.30;54.30
41220;DHT22;26951;47.338;9.196;2023-02-11T00:36:13;-4.40;53.80
41220;DHT22;26951;47.338;9.196;2023-02-11T00:38:58;-4.40;54.80
41220;DHT22;26951;47.338;9.196;2023-02-11T00:41:42;-4.40;55.10
41220;DHT22;26951;47.338;9.196;2023-02-11T00:44:26;-4.50;53.80
41220;DHT22;26951;47.338;9.196;2023-02-11T00:47:10;-4.50;53.40
41220;DHT22;26951;47.338;9.196;2023-02-11T00:49:54;-4.60;53.40
41220;DHT22;26951;47.338;9.196;2023-02-11T00:52:38;-4.60;53.90
41220;DHT22;26951;47.338;9.196;2023-02-11T00:55:22;-4.60;54.60
41220;DHT22;26951;47.338;9.196;2023-02-11T00:58:06;-4.60;53.70
41220;DHT22;26951;47.338;9.196;2023-02-11T01:00:51;-4.70;53.30
41220;DHT22;26951;47.338;9.196;2023-02-11T01:03:36;-4.70;53.40
41220;DHT22;26951;47.338;9.196;2023-02-11T01:06:20;-4.70;53.60
41220;DHT22;26951;47.338;9.196;2023-02-11T01:09:04;-4.70;53.70
41220;DHT22;26951;47.338;9.196;2023-02-11T01:11:48;-4.80;54.60
41220;DHT22;26951;47.338;9.196;2023-02-11T01:14:32;-4.80;55.60
41220;DHT22;26951;47.338;9.196;2023-02-11T01:17:16;-4.80;54.80
41220;DHT22;26951;47.338;9.196;2023-02-11T01:20:05;-4.80;54.30
41220;DHT22;26951;47.338;9.196;2023-02-11T01:22:49;-4.80;53.90
41220;DHT22;26951;47.338;9.196;2023-02-11T01:25:33;-4.90;54.00
41220;DHT22;26951;47.338;9.196;2023-02-11T01:28:20;-4.90;54.00
41220;DHT22;26951;47.338;9.196;2023-02-11T01:31:04;-5.00;56.10
41220;DHT22;26951;47.338;9.196;2023-02-11T01:33:48;-4.90;56.60
41220;DHT22;26951;47.338;9.196;2023-02-11T01:36:32;-4.90;56.60
41220;DHT22;26951;47.338;9.196;2023-02-11T01:39:17;-4.90;56.20
41220;DHT22;26951;47.338;9.196;2023-02-11T01:42:01;-4.90;56.40
41220;DHT22;26951;47.338;9.196;2023-02-11T01:44:45;-5.00;59.40
41220;DHT22;26951;47.338;9.196;2023-02-11T01:47:29;-4.90;59.40
41220;DHT22;26951;47.338;9.196;2023-02-11T01:50:13;-4.90;58.40
41220;DHT22;26951;47.338;9.196;2023-02-11T01:52:57;-4.80;57.80
41220;DHT22;26951;47.338;9.196;2023-02-11T01:56:02;-4.90;55.90
41220;DHT22;26951;47.338;9.196;2023-02-11T01:59:11;-4.90;55.20
41220;DHT22;26951;47.338;9.196;2023-02-11T02:02:12;-4.90;55.80
41220;DHT22;26951;47.338;9.196;2023-02-11T02:10:51;-5.00;58.50
41220;DHT22;26951;47.338;9.196;2023-02-11T02:13:38;-4.90;60.30
41220;DHT22;26951;47.338;9.196;2023-02-11T02:16:33;-4.90;61.80
41220;DHT22;26951;47.338;9.196;2023-02-11T02:28:27;-4.60;59.10
41220;DHT22;26951;47.338;9.196;2023-02-11T02:37:26;-4.60;60.60
41220;DHT22;26951;47.338;9.196;2023-02-11T02:40:18;-4.50;60.60
41220;DHT22;26951;47.338;9.196;2023-02-11T02:43:04;-4.40;59.90
41220;DHT22;26951;47.338;9.196;2023-02-11T02:45:49;-4.40;59.80
41220;DHT22;26951;47.338;9.196;2023-02-11T02:48:33;-4.40;59.10
41220;DHT22;26951;47.338;9.196;2023-02-11T02:55:06;-4.40;57.60
41220;DHT22;26951;47.338;9.196;2023-02-11T03:04:40;-4.50;55.70
41220;DHT22;26951;47.338;9.196;2023-02-11T03:07:40;-4.50;55.40
41220;DHT22;26951;47.338;9.196;2023-02-11T03:10:29;-4.50;55.00
41220;DHT22;26951;47.338;9.196;2023-02-11T03:13:15;-4.50;55.70
41220;DHT22;26951;47.338;9.196;2023-02-11T03:16:13;-4.60;55.30
41220;DHT22;26951;47.338;9.196;2023-02-11T03:19:02;-4.70;54.40
41220;DHT22;26951;47.338;9.196;2023-02-11T03:21:49;-4.70;53.60
41220;DHT22;26951;47.338;9.196;2023-02-11T03:24:36;-4.80;53.20
41220;DHT22;26951;47.338;9.196;2023-02-11T03:27:27;-4.90;53.80
41220;DHT22;26951;47.338;9.196;2023-02-11T03:30:23;-5.00;54.80
41220;DHT22;26951;47.338;9.196;2023-02-11T03:33:36;-4.90;56.30
41220;DHT22;26951;47.338;9.196;2023-02-11T03:36:27;-4.80;56.80
41220;DHT22;26951;47.338;9.196;2023-02-11T03:39:20;-4.80;56.10
41220;DHT22;26951;47.338;9.196;2023-02-11T03:42:07;-4.80;54.80
41220;DHT22;26951;47.338;9.196;2023-02-11T03:44:57;-4.80;55.20
41220;DHT22;26951;47.338;9.196;2023-02-11T03:47:49;-4.80;54.60
41220;DHT22;26951;47.338;9.196;2023-02-11T03:50:35;-4.90;54.00
41220;DHT22;26951;47.338;9.196;2023-02-11T03:53:21;-4.90;52.90
41220;DHT22;26951;47.338;9.196;2023-02-11T03:56:09;-5.00;53.40
41220;DHT22;26951;47.338;9.196;2023-02-11T03:58:54;-5.00;53.60
41220;DHT22;26951;47.338;9.196;2023-02-11T04:01:39;-5.10;54.30
41220;DHT22;26951;47.338;9.196;2023-02-11T04:04:23;-5.10;55.20
41220;DHT22;26951;47.338;9.196;2023-02-11T04:07:10;-5.10;54.00
41220;DHT22;26951;47.338;9.196;2023-02-11T04:09:54;-5.10;53.20
41220;DHT22;26951;47.338;9.196;2023-02-11T04:12:38;-5.20;53.20
41220;DHT22;26951;47.338;9.196;2023-02-11T04:15:23;-5.20;53.80
41220;DHT22;26951;47.338;9.196;2023-02-11T04:18:07;-5.30;54.20
41220;DHT22;26951;47.338;9.196;2023-02-11T04:20:51;-5.30;56.00
41220;DHT22;26951;47.338;9.196;2023-02-11T04:23:35;-5.30;57.10
41220;DHT22;26951;47.338;9.196;2023-02-11T04:26:19;-5.20;57.60
41220;DHT22;26951;47.338;9.196;2023-02-11T04:29:03;-5.10;57.30
41220;DHT22;26951;47.338;9.196;2023-02-11T04:31:48;-5.10;56.60
41220;DHT22;26951;47.338;9.196;2023-02-11T04:34:32;-5.10;56.40
41220;DHT22;26951;47.338;9.196;2023-02-11T04:37:16;-5.10;56.20
41220;DHT22;26951;47.338;9.196;2023-02-11T04:40:00;-5.10;55.90
41220;DHT22;26951;47.338;9.196;2023-02-11T04:42:44;-5.10;58.10
41220;DHT22;26951;47.338;9.196;2023-02-11T04:45:29;-5.10;59.40
41220;DHT22;26951;47.338;9.196;2023-02-11T04:48:13;-5.00;58.90
41220;DHT22;26951;47.338;9.196;2023-02-11T04:50:57;-4.90;58.50
41220;DHT22;26951;47.338;9.196;2023-02-11T04:53:41;-4.90;57.80
41220;DHT22;26951;47.338;9.196;2023-02-11T04:56:25;-4.90;57.00
41220;DHT22;26951;47.338;9.196;2023-02-11T04:59:09;-4.90;56.80
41220;DHT22;26951;47.338;9.196;2023-02-11T05:01:54;-4.90;57.50
41220;DHT22;26951;47.338;9.196;2023-02-11T05:04:38;-4.80;57.70
41220;DHT22;26951;47.338;9.196;2023-02-11T05:07:23;-4.80;58.30
41220;DHT22;26951;47.338;9.196;2023-02-11T05:10:07;-4.80;58.60
41220;DHT22;26951;47.338;9.196;2023-02-11T05:12:51;-4.70;58.50
41220;DHT22;26951;47.338;9.196;2023-02-11T05:15:36;-4.70;58.50
41220;DHT22;26951;47.338;9.196;2023-02-11T05:18:20;-4.60;58.20
41220;DHT22;26951;47.338;9.196;2023-02-11T05:21:09;-4.60;58.60
41220;DHT22;26951;47.338;9.196;2023-02-11T05:23:54;-4.60;58.50
41220;DHT22;26951;47.338;9.196;2023-02-11T05:26:39;-4.60;58.40
41220;DHT22;26951;47.338;9.196;2023-02-11T05:29:22;-4.60;58.30
41220;DHT22;26951;47.338;9.196;2023-02-11T05:32:06;-4.60;59.40
41220;DHT22;26951;47.338;9.196;2023-02-11T05:34:51;-4.50;59.60
41220;DHT22;26951;47.338;9.196;2023-02-11T05:37:36;-4.50;59.80
41220;DHT22;26951;47.338;9.196;2023-02-11T05:40:20;-4.40;59.10
41220;DHT22;26951;47.338;9.196;2023-02-11T05:43:04;-4.40;58.30
41220;DHT22;26951;47.338;9.196;2023-02-11T05:45:48;-4.40;57.60
41220;DHT22;26951;47.338;9.196;2023-02-11T05:48:32;-4.40;56.90
41220;DHT22;26951;47.338;9.196;2023-02-11T05:51:16;-4.40;56.10
41220;DHT22;26951;47.338;9.196;2023-02-11T05:54:00;-4.50;55.30
41220;DHT22;26951;47.338;9.196;2023-02-11T05:56:44;-4.50;56.60
41220;DHT22;26951;47.338;9.196;2023-02-11T05:59:29;-4.50;57.00
41220;DHT22;26951;47.338;9.196;2023-02-11T06:02:13;-4.50;57.30
41220;DHT22;26951;47.338;9.196;2023-02-11T06:04:57;-4.50;56.60
41220;DHT22;26951;47.338;9.196;2023-02-11T06:07:41;-4.50;56.60
41220;DHT22;26951;47.338;9.196;2023-02-11T06:10:26;-4.50;56.20
41220;DHT22;26951;47.338;9.196;2023-02-11T06:13:10;-4.50;56.40
41220;DHT22;26951;47.338;9.196;2023-02-11T06:15:55;-4.50;56.60
41220;DHT22;26951;47.338;9.196;2023-02-11T06:18:40;-4.50;55.90
41220;DHT22;26951;47.338;9.196;2023-02-11T06:21:24;-4.60;55.50
41220;DHT22;26951;47.338;9.196;2023-02-11T06:24:08;-4.60;55.80
41220;DHT22;26951;47.338;9.196;2023-02-11T06:26:52;-4.60;55.80
41220;DHT22;26951;47.338;9.196;2023-02-11T06:29:36;-4.60;54.90
41220;DHT22;26951;47.338;9.196;2023-02-11T06:32:21;-4.70;55.20
41220;DHT22;26951;47.338;9.196;2023-02-11T06:35:05;-4.70;55.90
41220;DHT22;26951;47.338;9.196;2023-02-11T06:37:50;-4.70;55.70
41220;DHT22;26951;47.338;9.196;2023-02-11T06:40:36;-4.60;56.10
41220;DHT22;26951;47.338;9.196;2023-02-11T06:43:20;-4.60;56.00
41220;DHT22;26951;47.338;9.196;2023-02-11T06:46:06;-4.70;56.00
41220;DHT22;26951;47.338;9.196;2023-02-11T06:48:50;-4.60;56.70
41220;DHT22;26951;47.338;9.196;2023-02-11T06:51:35;-4.70;56.50
41220;DHT22;26951;47.338;9.196;2023-02-11T06:54:19;-4.70;55.60
41220;DHT22;26951;47.338;9.196;2023-02-11T06:57:04;-4.70;55.40
41220;DHT22;26951;47.338;9.196;2023-02-11T06:59:48;-4.70;55.50
41220;DHT22;26951;47.338;9.196;2023-02-11T07:02:32;-4.70;55.40
41220;DHT22;26951;47.338;9.196;2023-02-11T07:05:16;-4.60;55.70
41220;DHT22;26951;47.338;9.196;2023-02-11T07:08:00;-4.60;55.80
41220;DHT22;26951;47.338;9.196;2023-02-11T07:10:44;-4.60;55.80
41220;DHT22;26951;47.338;9.196;2023-02-11T07:13:29;-4.60;55.40
41220;DHT22;26951;47.338;9.196;2023-02-11T07:16:14;-4.60;55.80
41220;DHT22;26951;47.338;9.196;2023-02-11T07:18:59;-4.60;55.70
41220;DHT22;26951;47.338;9.196;2023-02-11T07:21:43;-4.60;55.90
41220;DHT22;26951;47.338;9.196;2023-02-11T07:24:27;-4.60;56.40
41220;DHT22;26951;47.338;9.196;2023-02-11T07:27:12;-4.60;56.40
41220;DHT22;26951;47.338;9.196;2023-02-11T07:29:56;-4.60;57.20
41220;DHT22;26951;47.338;9.196;2023-02-11T07:32:40;-4.60;57.20
41220;DHT22;26951;47.338;9.196;2023-02-11T07:35:24;-4.50;57.70
41220;DHT22;26951;47.338;9.196;2023-02-11T07:38:08;-4.50;58.10
41220;DHT22;26951;47.338;9.196;2023-02-11T07:40:52;-4.40;58.00
41220;DHT22;26951;47.338;9.196;2023-02-11T07:43:38;-4.40;57.80
41220;DHT22;26951;47.338;9.196;2023-02-11T07:46:26;-4.40;57.80
41220;DHT22;26951;47.338;9.196;2023-02-11T07:49:11;-4.30;57.50
41220;DHT22;26951;47.338;9.196;2023-02-11T07:51:55;-4.30;57.90
41220;DHT22;26951;47.338;9.196;2023-02-11T07:54:40;-4.30;58.50
41220;DHT22;26951;47.338;9.196;2023-02-11T07:57:24;-4.20;58.20
41220;DHT22;26951;47.338;9.196;2023-02-11T08:00:08;-4.20;57.80
41220;DHT22;26951;47.338;9.196;2023-02-11T08:02:53;-4.20;58.00
41220;DHT22;26951;47.338;9.196;2023-02-11T08:05:37;-4.10;58.60
41220;DHT22;26951;47.338;9.196;2023-02-11T08:08:24;-4.00;58.60
41220;DHT22;26951;47.338;9.196;2023-02-11T08:14:23;-3.90;60.00
41220;DHT22;26951;47.338;9.196;2023-02-11T08:17:07;-3.70;62.00
41220;DHT22;26951;47.338;9.196;2023-02-11T08:19:52;-3.40;64.70
41220;DHT22;26951;47.338;9.196;2023-02-11T08:22:36;-3.00;66.10
41220;DHT22;26951;47.338;9.196;2023-02-11T08:25:20;-2.80;66.00
41220;DHT22;26951;47.338;9.196;2023-02-11T08:28:04;-2.50;66.20
41220;DHT22;26951;47.338;9.196;2023-02-11T08:30:48;-2.20;66.90
41220;DHT22;26951;47.338;9.196;2023-02-11T08:33:33;-1.90;67.80
41220;DHT22;26951;47.338;9.196;2023-02-11T08:36:22;-1.70;67.60
41220;DHT22;26951;47.338;9.196;2023-02-11T08:39:15;-1.40;68.00
41220;DHT22;26951;47.338;9.196;2023-02-11T08:42:00;-1.20;67.00
41220;DHT22;26951;47.338;9.196;2023-02-11T08:44:44;-1.00;66.50
41220;DHT22;26951;47.338;9.196;2023-02-11T08:47:28;-0.80;66.70
41220;DHT22;26951;47.338;9.196;2023-02-11T08:50:12;-0.60;66.30
41220;DHT22;26951;47.338;9.196;2023-02-11T08:52:56;-0.40;64.90
41220;DHT22;26951;47.338;9.196;2023-02-11T08:55:50;-0.20;64.30
41220;DHT22;26951;47.338;9.196;2023-02-11T08:58:34;0.00;64.00
41220;DHT22;26951;47.338;9.196;2023-02-11T09:01:23;0.20;63.10
41220;DHT22;26951;47.338;9.196;2023-02-11T09:04:09;0.40;63.60
41220;DHT22;26951;47.338;9.196;2023-02-11T09:06:53;0.50;63.70
41220;DHT22;26951;47.338;9.196;2023-02-11T09:09:37;0.60;62.90
41220;DHT22;26951;47.338;9.196;2023-02-11T09:12:21;0.80;61.30
41220;DHT22;26951;47.338;9.196;2023-02-11T09:15:06;0.90;60.10
41220;DHT22;26951;47.338;9.196;2023-02-11T09:17:50;1.10;61.70
41220;DHT22;26951;47.338;9.196;2023-02-11T09:20:34;1.50;63.30
41220;DHT22;26951;47.338;9.196;2023-02-11T09:23:18;1.80;61.60
41220;DHT22;26951;47.338;9.196;2023-02-11T09:26:18;2.10;60.00
41220;DHT22;26951;47.338;9.196;2023-02-11T09:29:03;2.30;56.80
41220;DHT22;26951;47.338;9.196;2023-02-11T09:31:48;2.60;53.90
41220;DHT22;26951;47.338;9.196;2023-02-11T09:34:32;3.00;51.00
41220;DHT22;26951;47.338;9.196;2023-02-11T09:37:16;3.20;49.30
41220;DHT22;26951;47.338;9.196;2023-02-11T09:40:00;3.50;41.30
41220;DHT22;26951;47.338;9.196;2023-02-11T09:45:34;3.50;37.50
41220;DHT22;26951;47.338;9.196;2023-02-11T09:48:21;3.50;40.80
41220;DHT22;26951;47.338;9.196;2023-02-11T09:51:15;3.80;38.40
41220;DHT22;26951;47.338;9.196;2023-02-11T09:54:06;3.90;40.00
41220;DHT22;26951;47.338;9.196;2023-02-11T09:56:53;4.00;39.80
41220;DHT22;26951;47.338;9.196;2023-02-11T09:59:39;4.20;43.00
41220;DHT22;26951;47.338;9.196;2023-02-11T10:11:48;5.30;37.60
41220;DHT22;26951;47.338;9.196;2023-02-11T10:14:49;5.40;40.10
41220;DHT22;26951;47.338;9.196;2023-02-11T10:24:11;5.50;41.10
41220;DHT22;26951;47.338;9.196;2023-02-11T10:26:57;5.40;40.90
41220;DHT22;26951;47.338;9.196;2023-02-11T10:30:08;5.40;41.70
41220;DHT22;26951;47.338;9.196;2023-02-11T10:33:02;5.30;42.60
41220;DHT22;26951;47.338;9.196;2023-02-11T10:35:48;5.40;43.20
41220;DHT22;26951;47.338;9.196;2023-02-11T10:38:32;5.30;42.00
41220;DHT22;26951;47.338;9.196;2023-02-11T10:41:20;5.20;41.20
41220;DHT22;26951;47.338;9.196;2023-02-11T10:44:06;5.20;42.00
41220;DHT22;26951;47.338;9.196;2023-02-11T10:46:50;5.10;41.10
41220;DHT22;26951;47.338;9.196;2023-02-11T10:49:39;5.00;41.70
41220;DHT22;26951;47.338;9.196;2023-02-11T10:52:25;5.00;40.40
41220;DHT22;26951;47.338;9.196;2023-02-11T10:55:19;4.90;39.70
41220;DHT22;26951;47.338;9.196;2023-02-11T10:58:03;4.80;39.60
41220;DHT22;26951;47.338;9.196;2023-02-11T11:00:52;4.80;39.80
41220;DHT22;26951;47.338;9.196;2023-02-11T11:03:39;4.80;39.50
41220;DHT22;26951;47.338;9.196;2023-02-11T11:06:32;4.80;41.20
41220;DHT22;26951;47.338;9.196;2023-02-11T11:09:29;4.80;41.30
41220;DHT22;26951;47.338;9.196;2023-02-11T11:15:30;4.90;41.70
41220;DHT22;26951;47.338;9.196;2023-02-11T11:18:17;5.10;43.20
41220;DHT22;26951;47.338;9.196;2023-02-11T11:21:10;5.20;43.10
41220;DHT22;26951;47.338;9.196;2023-02-11T11:23:58;5.30;41.40
41220;DHT22;26951;47.338;9.196;2023-02-11T11:26:53;5.40;40.20
41220;DHT22;26951;47.338;9.196;2023-02-11T11:29:46;5.50;40.50
41220;DHT22;26951;47.338;9.196;2023-02-11T11:32:32;5.70;43.10
41220;DHT22;26951;47.338;9.196;2023-02-11T11:35:25;6.00;43.40
41220;DHT22;26951;47.338;9.196;2023-02-11T11:38:12;6.30;40.80
41220;DHT22;26951;47.338;9.196;2023-02-11T11:44:25;7.30;39.40
41220;DHT22;26951;47.338;9.196;2023-02-11T11:53:10;8.70;35.30
41220;DHT22;26951;47.338;9.196;2023-02-11T11:56:01;8.90;35.20
41220;DHT22;26951;47.338;9.196;2023-02-11T11:58:47;9.20;35.50
41220;DHT22;26951;47.338;9.196;2023-02-11T12:05:01;9.70;33.20
41220;DHT22;26951;47.338;9.196;2023-02-11T12:08:16;10.00;33.20
41220;DHT22;26951;47.338;9.196;2023-02-11T12:11:25;10.30;32.20
41220;DHT22;26951;47.338;9.196;2023-02-11T12:17:19;10.40;28.30
41220;DHT22;26951;47.338;9.196;2023-02-11T12:26:14;10.80;30.00
41220;DHT22;26951;47.338;9.196;2023-02-11T12:35:55;11.30;28.40
41220;DHT22;26951;47.338;9.196;2023-02-11T12:38:32;11.30;28.10
41220;DHT22;26951;47.338;9.196;2023-02-11T12:44:35;11.30;28.30
41220;DHT22;26951;47.338;9.196;2023-02-11T12:57:12;11.60;27.20
41220;DHT22;26951;47.338;9.196;2023-02-11T13:00:16;11.70;27.20
41220;DHT22;26951;47.338;9.196;2023-02-11T13:05:56;12.10;30.00
41220;DHT22;26951;47.338;9.196;2023-02-11T13:08:45;12.20;27.70
41220;DHT22;26951;47.338;9.196;2023-02-11T13:11:43;12.30;26.50
41220;DHT22;26951;47.338;9.196;2023-02-11T13:14:37;12.30;26.00
41220;DHT22;26951;47.338;9.196;2023-02-11T13:17:32;12.30;26.80
41220;DHT22;26951;47.338;9.196;2023-02-11T13:20:28;12.40;28.20
41220;DHT22;26951;47.338;9.196;2023-02-11T13:23:36;12.30;25.90
41220;DHT22;26951;47.338;9.196;2023-02-11T13:26:35;12.20;27.30
41220;DHT22;26951;47.338;9.196;2023-02-11T13:29:28;12.00;27.70
41220;DHT22;26951;47.338;9.196;2023-02-11T13:32:15;11.80;30.00
41220;DHT22;26951;47.338;9.196;2023-02-11T13:34:59;11.60;30.50
41220;DHT22;26951;47.338;9.196;2023-02-11T13:37:46;11.60;32.00
41220;DHT22;26951;47.338;9.196;2023-02-11T13:43:25;11.60;32.60
41220;DHT22;26951;47.338;9.196;2023-02-11T13:46:12;11.60;33.20
41220;DHT22;26951;47.338;9.196;2023-02-11T13:48:57;11.50;30.90
41220;DHT22;26951;47.338;9.196;2023-02-11T13:51:42;11.40;32.80
41220;DHT22;26951;47.338;9.196;2023-02-11T13:54:29;11.30;33.10
41220;DHT22;26951;47.338;9.196;2023-02-11T14:03:35;10.90;34.40
41220;DHT22;26951;47.338;9.196;2023-02-11T14:07:20;10.70;35.30
41220;DHT22;26951;47.338;9.196;2023-02-11T14:14:11;10.30;35.90
41220;DHT22;26951;47.338;9.196;2023-02-11T14:19:44;9.80;37.40
41220;DHT22;26951;47.338;9.196;2023-02-11T14:22:48;9.70;38.20
41220;DHT22;26951;47.338;9.196;2023-02-11T14:25:33;9.60;38.70
41220;DHT22;26951;47.338;9.196;2023-02-11T14:28:23;9.40;38.90
41220;DHT22;26951;47.338;9.196;2023-02-11T14:31:11;9.40;39.20
41220;DHT22;26951;47.338;9.196;2023-02-11T14:43:11;8.90;40.30
41220;DHT22;26951;47.338;9.196;2023-02-11T14:45:59;8.70;40.50
41220;DHT22;26951;47.338;9.196;2023-02-11T14:48:51;8.60;40.90
41220;DHT22;26951;47.338;9.196;2023-02-11T14:51:39;8.60;41.20
41220;DHT22;26951;47.338;9.196;2023-02-11T14:54:25;8.50;41.30
41220;DHT22;26951;47.338;9.196;2023-02-11T14:57:17;8.40;41.50
41220;DHT22;26951;47.338;9.196;2023-02-11T15:00:06;8.30;41.80
41220;DHT22;26951;47.338;9.196;2023-02-11T15:02:56;8.30;42.40
41220;DHT22;26951;47.338;9.196;2023-02-11T15:05:40;8.20;42.70
41220;DHT22;26951;47.338;9.196;2023-02-11T15:08:25;8.10;42.70
41220;DHT22;26951;47.338;9.196;2023-02-11T15:11:11;8.00;42.80
41220;DHT22;26951;47.338;9.196;2023-02-11T15:14:05;8.00;43.60
41220;DHT22;26951;47.338;9.196;2023-02-11T15:16:52;7.90;43.40
41220;DHT22;26951;47.338;9.196;2023-02-11T15:19:39;7.80;43.90
41220;DHT22;26951;47.338;9.196;2023-02-11T15:22:27;7.70;43.90
41220;DHT22;26951;47.338;9.196;2023-02-11T15:25:15;7.60;44.10
41220;DHT22;26951;47.338;9.196;2023-02-11T15:28:14;7.50;44.60
41220;DHT22;26951;47.338;9.196;2023-02-11T15:31:15;7.40;45.00
41220;DHT22;26951;47.338;9.196;2023-02-11T15:34:06;7.20;45.50
41220;DHT22;26951;47.338;9.196;2023-02-11T15:36:50;7.00;45.80
41220;DHT22;26951;47.338;9.196;2023-02-11T15:39:39;6.90;46.00
41220;DHT22;26951;47.338;9.196;2023-02-11T15:42:26;6.80;45.80
41220;DHT22;26951;47.338;9.196;2023-02-11T15:48:05;6.50;46.30
41220;DHT22;26951;47.338;9.196;2023-02-11T15:50:53;6.40;46.80
41220;DHT22;26951;47.338;9.196;2023-02-11T15:53:41;6.30;46.90
41220;DHT22;26951;47.338;9.196;2023-02-11T15:56:36;6.20;47.00
41220;DHT22;26951;47.338;9.196;2023-02-11T15:59:33;6.00;47.70
41220;DHT22;26951;47.338;9.196;2023-02-11T16:02:29;5.90;48.00
41220;DHT22;26951;47.338;9.196;2023-02-11T16:05:26;5.80;48.00
41220;DHT22;26951;47.338;9.196;2023-02-11T16:08:37;5.70;48.30
41220;DHT22;26951;47.338;9.196;2023-02-11T16:11:27;5.50;48.60
41220;DHT22;26951;47.338;9.196;2023-02-11T16:17:25;5.20;50.00
41220;DHT22;26951;47.338;9.196;2023-02-11T16:20:19;5.10;50.00
41220;DHT22;26951;47.338;9.196;2023-02-11T16:23:05;5.00;49.90
41220;DHT22;26951;47.338;9.196;2023-02-11T16:25:58;4.90;49.90
41220;DHT22;26951;47.338;9.196;2023-02-11T16:28:42;4.80;49.80
41220;DHT22;26951;47.338;9.196;2023-02-11T16:31:35;4.60;50.30
41220;DHT22;26951;47.338;9.196;2023-02-11T16:34:22;4.40;50.90
41220;DHT22;26951;47.338;9.196;2023-02-11T16:37:06;4.30;51.00
41220;DHT22;26951;47.338;9.196;2023-02-11T16:39:56;4.30;51.60
41220;DHT22;26951;47.338;9.196;2023-02-11T16:42:41;4.20;51.10
41220;DHT22;26951;47.338;9.196;2023-02-11T16:45:25;4.10;51.20
41220;DHT22;26951;47.338;9.196;2023-02-11T16:48:13;4.10;51.30
41220;DHT22;26951;47.338;9.196;2023-02-11T16:50:58;4.00;51.40
41220;DHT22;26951;47.338;9.196;2023-02-11T16:53:42;3.90;51.20
41220;DHT22;26951;47.338;9.196;2023-02-11T16:56:26;3.80;51.30
41220;DHT22;26951;47.338;9.196;2023-02-11T16:59:11;3.70;51.60
41220;DHT22;26951;47.338;9.196;2023-02-11T17:01:56;3.60;51.60
41220;DHT22;26951;47.338;9.196;2023-02-11T17:04:40;3.50;51.80
41220;DHT22;26951;47.338;9.196;2023-02-11T17:07:25;3.40;51.40
41220;DHT22;26951;47.338;9.196;2023-02-11T17:10:19;3.30;51.40
41220;DHT22;26951;47.338;9.196;2023-02-11T17:13:03;3.10;51.70
41220;DHT22;26951;47.338;9.196;2023-02-11T17:15:51;3.00;51.40
41220;DHT22;26951;47.338;9.196;2023-02-11T17:18:35;2.90;51.90
41220;DHT22;26951;47.338;9.196;2023-02-11T17:21:19;2.90;51.80
41220;DHT22;26951;47.338;9.196;2023-02-11T17:24:03;2.90;51.70
41220;DHT22;26951;47.338;9.196;2023-02-11T17:26:48;2.80;51.00
41220;DHT22;26951;47.338;9.196;2023-02-11T17:29:33;2.80;51.30
41220;DHT22;26951;47.338;9.196;2023-02-11T17:32:16;2.70;51.50
41220;DHT22;26951;47.338;9.196;2023-02-11T17:35:01;2.70;51.40
41220;DHT22;26951;47.338;9.196;2023-02-11T17:37:45;2.70;51.00
41220;DHT22;26951;47.338;9.196;2023-02-11T17:40:29;2.60;51.10
41220;DHT22;26951;47.338;9.196;2023-02-11T17:43:13;2.50;50.80
41220;DHT22;26951;47.338;9.196;2023-02-11T17:45:58;2.40;50.60
41220;DHT22;26951;47.338;9.196;2023-02-11T17:48:42;2.40;50.60
41220;DHT22;26951;47.338;9.196;2023-02-11T17:51:30;2.30;50.30
41220;DHT22;26951;47.338;9.196;2023-02-11T17:54:19;2.20;50.40
41220;DHT22;26951;47.338;9.196;2023-02-11T17:57:03;2.10;50.30
41220;DHT22;26951;47.338;9.196;2023-02-11T17:59:47;2.00;49.40
41220;DHT22;26951;47.338;9.196;2023-02-11T18:02:32;2.00;48.90
41220;DHT22;26951;47.338;9.196;2023-02-11T18:05:16;1.90;49.10
41220;DHT22;26951;47.338;9.196;2023-02-11T18:08:00;1.90;49.30
41220;DHT22;26951;47.338;9.196;2023-02-11T18:10:45;1.70;49.40
41220;DHT22;26951;47.338;9.196;2023-02-11T18:13:29;1.60;48.50
41220;DHT22;26951;47.338;9.196;2023-02-11T18:16:13;1.50;48.40
41220;DHT22;26951;47.338;9.196;2023-02-11T18:18:58;1.40;48.30
41220;DHT22;26951;47.338;9.196;2023-02-11T18:21:42;1.20;47.50
41220;DHT22;26951;47.338;9.196;2023-02-11T18:24:26;1.20;46.60
41220;DHT22;26951;47.338;9.196;2023-02-11T18:27:10;1.10;46.00
41220;DHT22;26951;47.338;9.196;2023-02-11T18:29:54;1.10;46.30
41220;DHT22;26951;47.338;9.196;2023-02-11T18:36:21;0.90;47.50
41220;DHT22;26951;47.338;9.196;2023-02-11T18:39:05;0.80;46.10
41220;DHT22;26951;47.338;9.196;2023-02-11T18:41:49;0.80;46.90
41220;DHT22;26951;47.338;9.196;2023-02-11T18:44:37;0.70;47.50
41220;DHT22;26951;47.338;9.196;2023-02-11T18:47:21;0.60;48.00
41220;DHT22;26951;47.338;9.196;2023-02-11T18:50:07;0.50;46.60
41220;DHT22;26951;47.338;9.196;2023-02-11T18:52:51;0.50;47.70
41220;DHT22;26951;47.338;9.196;2023-02-11T18:55:40;0.40;47.80
41220;DHT22;26951;47.338;9.196;2023-02-11T18:58:25;0.40;47.70
41220;DHT22;26951;47.338;9.196;2023-02-11T19:01:17;0.30;46.70
41220;DHT22;26951;47.338;9.196;2023-02-11T19:04:03;0.20;47.00
41220;DHT22;26951;47.338;9.196;2023-02-11T19:06:47;0.20;48.00
41220;DHT22;26951;47.338;9.196;2023-02-11T19:09:35;0.10;48.60
41220;DHT22;26951;47.338;9.196;2023-02-11T19:12:19;0.10;47.80
41220;DHT22;26951;47.338;9.196;2023-02-11T19:15:07;0.00;46.90
41220;DHT22;26951;47.338;9.196;2023-02-11T19:17:52;0.00;47.30
41220;DHT22;26951;47.338;9.196;2023-02-11T19:20:41;0.00;48.10
41220;DHT22;26951;47.338;9.196;2023-02-11T19:23:25;-0.10;47.30
41220;DHT22;26951;47.338;9.196;2023-02-11T19:26:09;-0.20;47.00
41220;DHT22;26951;47.338;9.196;2023-02-11T19:28:54;-0.30;46.40
41220;DHT22;26951;47.338;9.196;2023-02-11T19:31:38;-0.30;46.10
41220;DHT22;26951;47.338;9.196;2023-02-11T19:34:22;-0.30;45.80
41220;DHT22;26951;47.338;9.196;2023-02-11T19:37:08;-0.30;45.40
41220;DHT22;26951;47.338;9.196;2023-02-11T19:39:53;-0.30;46.80
41220;DHT22;26951;47.338;9.196;2023-02-11T19:42:38;-0.30;47.20
41220;DHT22;26951;47.338;9.196;2023-02-11T19:45:22;-0.30;47.50
41220;DHT22;26951;47.338;9.196;2023-02-11T19:48:06;-0.40;47.70
41220;DHT22;26951;47.338;9.196;2023-02-11T19:50:50;-0.50;47.90
41220;DHT22;26951;47.338;9.196;2023-02-11T19:53:34;-0.60;48.20
41220;DHT22;26951;47.338;9.196;2023-02-11T19:56:19;-0.60;48.50
41220;DHT22;26951;47.338;9.196;2023-02-11T19:59:03;-0.70;48.30